sensor_id;sensor_type;location;lat;lon;timestamp;pressure;altitude;pressure_sealevel;temperature;humidity
62544;BME280;48597;49.030;1.822;2023-02-20T00:01:26;102171.03;;;19.55;40.70
62544;BME280;48597;49.030;1.822;2023-02-20T00:03:51;102169.81;;;19.56;40.77
62544;BME280;48597;49.030;1.822;2023-02-20T00:06:17;102178.78;;;19.58;40.89
62544;BME280;48597;49.030;1.822;2023-02-20T00:08:42;102169.75;;;19.63;40.64
62544;BME280;48597;49.030;1.822;2023-02-20T00:11:07;102175.47;;;19.67;40.60
62544;BME280;48597;49.030;1.822;2023-02-20T00:13:32;102173.41;;;19.68;40.68
62544;BME280;48597;49.030;1.822;2023-02-20T00:15:57;102172.22;;;19.65;40.68
62544;BME280;48597;49.030;1.822;2023-02-20T00:18:23;102166.91;;;19.63;40.66
62544;BME280;48597;49.030;1.822;2023-02-20T00:20:49;102169.34;;;19.65;40.55
62544;BME280;48597;49.030;1.822;2023-02-20T00:23:15;102163.63;;;19.65;40.55
62544;BME280;48597;49.030;1.822;2023-02-20T00:25:40;102166.47;;;19.65;40.61
62544;BME280;48597;49.030;1.822;2023-02-20T00:28:05;102160.75;;;19.65;40.62
62544;BME280;48597;49.030;1.822;2023-02-20T00:30:31;102159.94;;;19.65;40.58
62544;BME280;48597;49.030;1.822;2023-02-20T00:32:57;102153.00;;;19.66;40.57
62544;BME280;48597;49.030;1.822;2023-02-20T00:35:23;102157.91;;;19.65;40.48
62544;BME280;48597;49.030;1.822;2023-02-20T00:37:49;102157.50;;;19.67;40.45
62544;BME280;48597;49.030;1.822;2023-02-20T00:40:15;102170.16;;;19.66;40.55
62544;BME280;48597;49.030;1.822;2023-02-20T00:42:41;102162.81;;;19.65;40.42
62544;BME280;48597;49.030;1.822;2023-02-20T00:45:07;102161.56;;;19.66;40.53
62544;BME280;48597;49.030;1.822;2023-02-20T00:47:32;102159.94;;;19.68;40.35
62544;BME280;48597;49.030;1.822;2023-02-20T00:49:58;102164.00;;;19.71;40.49
62544;BME280;48597;49.030;1.822;2023-02-20T00:52:23;102157.06;;;19.72;40.27
62544;BME280;48597;49.030;1.822;2023-02-20T00:54:48;102159.47;;;19.77;40.31
62544;BME280;48597;49.030;1.822;2023-02-20T00:57:14;102157.88;;;19.72;40.28
62544;BME280;48597;49.030;1.822;2023-02-20T00:59:39;102161.88;;;19.82;40.16
62544;BME280;48597;49.030;1.822;2023-02-20T01:02:04;102167.59;;;19.85;40.03
62544;BME280;48597;49.030;1.822;2023-02-20T01:04:30;102163.91;;;19.85;40.17
62544;BME280;48597;49.030;1.822;2023-02-20T01:06:55;102155.69;;;19.90;40.04
62544;BME280;48597;49.030;1.822;2023-02-20T01:09:20;102149.97;;;19.90;39.96
62544;BME280;48597;49.030;1.822;2023-02-20T01:11:46;102148.72;;;19.91;39.97
62544;BME280;48597;49.030;1.822;2023-02-20T01:14:12;102154.84;;;19.97;39.82
62544;BME280;48597;49.030;1.822;2023-02-20T01:16:42;102149.94;;;19.94;40.00
62544;BME280;48597;49.030;1.822;2023-02-20T01:19:07;102142.91;;;20.02;39.96
62544;BME280;48597;49.030;1.822;2023-02-20T01:21:33;102145.75;;;20.06;39.71
62544;BME280;48597;49.030;1.822;2023-02-20T01:23:58;102144.91;;;20.09;39.70
62544;BME280;48597;49.030;1.822;2023-02-20T01:26:23;102149.81;;;20.08;39.59
62544;BME280;48597;49.030;1.822;2023-02-20T01:28:48;102141.66;;;20.07;39.64
62544;BME280;48597;49.030;1.822;2023-02-20T01:31:14;102141.25;;;20.05;39.72
62544;BME280;48597;49.030;1.822;2023-02-20T01:33:42;102138.84;;;19.99;39.74
62544;BME280;48597;49.030;1.822;2023-02-20T01:36:08;102139.22;;;20.02;39.83
62544;BME280;48597;49.030;1.822;2023-02-20T01:38:34;102139.66;;;20.00;39.70
62544;BME280;48597;49.030;1.822;2023-02-20T01:40:59;102137.59;;;20.04;39.92
62544;BME280;48597;49.030;1.822;2023-02-20T01:43:24;102135.13;;;20.06;39.79
62544;BME280;48597;49.030;1.822;2023-02-20T01:45:49;102151.91;;;20.01;39.84
62544;BME280;48597;49.030;1.822;2023-02-20T01:48:19;102142.47;;;20.07;39.72
62544;BME280;48597;49.030;1.822;2023-02-20T01:50:45;102141.63;;;20.10;39.36
62544;BME280;48597;49.030;1.822;2023-02-20T01:53:11;102140.78;;;20.13;39.73
62544;BME280;48597;49.030;1.822;2023-02-20T01:58:08;102141.59;;;20.14;39.50
62544;BME280;48597;49.030;1.822;2023-02-20T02:00:35;102132.19;;;20.13;39.59
62544;BME280;48597;49.030;1.822;2023-02-20T02:03:04;102142.81;;;20.13;39.62
62544;BME280;48597;49.030;1.822;2023-02-20T02:05:30;102137.16;;;20.09;39.57
62544;BME280;48597;49.030;1.822;2023-02-20T02:07:57;102144.50;;;20.10;39.40
62544;BME280;48597;49.030;1.822;2023-02-20T02:10:24;102133.06;;;20.10;39.48
62544;BME280;48597;49.030;1.822;2023-02-20T02:12:53;102138.34;;;20.12;39.57
62544;BME280;48597;49.030;1.822;2023-02-20T02:15:19;102132.56;;;20.15;39.33
62544;BME280;48597;49.030;1.822;2023-02-20T02:22:48;102132.53;;;20.22;39.22
62544;BME280;48597;49.030;1.822;2023-02-20T02:25:24;102119.44;;;20.25;39.03
62544;BME280;48597;49.030;1.822;2023-02-20T02:33:03;102106.75;;;20.22;39.17
62544;BME280;48597;49.030;1.822;2023-02-20T02:38:30;102102.59;;;20.27;39.19
62544;BME280;48597;49.030;1.822;2023-02-20T02:43:48;102084.19;;;20.28;39.22
62544;BME280;48597;49.030;1.822;2023-02-20T02:46:19;102083.00;;;20.25;38.97
62544;BME280;48597;49.030;1.822;2023-02-20T02:48:49;102089.53;;;20.26;38.92
62544;BME280;48597;49.030;1.822;2023-02-20T02:51:17;102085.50;;;20.23;39.10
62544;BME280;48597;49.030;1.822;2023-02-20T02:56:33;102086.25;;;20.27;39.21
62544;BME280;48597;49.030;1.822;2023-02-20T02:58:58;102078.06;;;20.26;38.96
62544;BME280;48597;49.030;1.822;2023-02-20T03:01:23;102076.81;;;20.30;39.01
62544;BME280;48597;49.030;1.822;2023-02-20T03:03:49;102077.19;;;20.32;38.91
62544;BME280;48597;49.030;1.822;2023-02-20T03:06:17;102079.25;;;20.32;38.83
62544;BME280;48597;49.030;1.822;2023-02-20T03:08:58;102078.44;;;20.31;38.84
62544;BME280;48597;49.030;1.822;2023-02-20T03:11:26;102066.59;;;20.29;39.04
62544;BME280;48597;49.030;1.822;2023-02-20T03:13:56;102064.16;;;20.28;38.88
62544;BME280;48597;49.030;1.822;2023-02-20T03:19:07;102054.31;;;20.29;38.88
62544;BME280;48597;49.030;1.822;2023-02-20T03:21:37;102054.75;;;20.27;38.75
62544;BME280;48597;49.030;1.822;2023-02-20T03:24:04;102045.75;;;20.29;38.87
62544;BME280;48597;49.030;1.822;2023-02-20T03:26:32;102047.78;;;20.28;38.74
62544;BME280;48597;49.030;1.822;2023-02-20T03:29:02;102041.63;;;20.30;38.62
62544;BME280;48597;49.030;1.822;2023-02-20T03:31:34;102043.25;;;20.31;38.80
62544;BME280;48597;49.030;1.822;2023-02-20T03:34:05;102042.88;;;20.29;38.71
62544;BME280;48597;49.030;1.822;2023-02-20T03:36:56;102043.25;;;20.31;38.71
62544;BME280;48597;49.030;1.822;2023-02-20T03:39:43;102037.16;;;20.29;38.53
62544;BME280;48597;49.030;1.822;2023-02-20T03:42:28;102034.28;;;20.29;38.69
62544;BME280;48597;49.030;1.822;2023-02-20T03:45:14;102029.38;;;20.29;38.69
62544;BME280;48597;49.030;1.822;2023-02-20T03:47:43;102028.13;;;20.30;38.66
62544;BME280;48597;49.030;1.822;2023-02-20T03:50:09;102021.59;;;20.30;38.60
62544;BME280;48597;49.030;1.822;2023-02-20T03:52:36;102026.91;;;20.31;38.50
62544;BME280;48597;49.030;1.822;2023-02-20T03:55:01;102035.91;;;20.30;38.51
62544;BME280;48597;49.030;1.822;2023-02-20T03:57:32;102030.59;;;20.28;38.55
62544;BME280;48597;49.030;1.822;2023-02-20T04:00:04;102028.13;;;20.30;38.43
62544;BME280;48597;49.030;1.822;2023-02-20T04:02:41;102025.28;;;20.30;38.55
62544;BME280;48597;49.030;1.822;2023-02-20T04:05:10;102026.91;;;20.31;38.44
62544;BME280;48597;49.030;1.822;2023-02-20T04:07:42;102022.81;;;20.32;38.49
62544;BME280;48597;49.030;1.822;2023-02-20T04:10:11;102021.19;;;20.31;38.45
62544;BME280;48597;49.030;1.822;2023-02-20T04:12:39;102021.97;;;20.32;38.43
62544;BME280;48597;49.030;1.822;2023-02-20T04:15:07;102017.50;;;20.31;38.35
62544;BME280;48597;49.030;1.822;2023-02-20T04:17:36;102019.53;;;20.30;38.20
62544;BME280;48597;49.030;1.822;2023-02-20T04:20:04;102020.34;;;20.31;38.46
62544;BME280;48597;49.030;1.822;2023-02-20T04:22:31;102020.34;;;20.31;38.38
62544;BME280;48597;49.030;1.822;2023-02-20T04:25:00;102016.25;;;20.32;38.47
62544;BME280;48597;49.030;1.822;2023-02-20T04:27:28;102012.59;;;20.31;38.27
62544;BME280;48597;49.030;1.822;2023-02-20T04:29:54;102010.09;;;20.33;38.32
62544;BME280;48597;49.030;1.822;2023-02-20T04:32:20;102009.72;;;20.31;38.26
62544;BME280;48597;49.030;1.822;2023-02-20T04:34:45;102011.34;;;20.32;38.38
62544;BME280;48597;49.030;1.822;2023-02-20T04:37:12;102005.63;;;20.32;38.33
62544;BME280;48597;49.030;1.822;2023-02-20T04:39:37;102013.78;;;20.34;38.43
62544;BME280;48597;49.030;1.822;2023-02-20T04:42:02;102006.44;;;20.33;38.25
62544;BME280;48597;49.030;1.822;2023-02-20T04:44:28;102013.78;;;20.34;38.28
62544;BME280;48597;49.030;1.822;2023-02-20T04:46:58;102017.88;;;20.37;38.13
62544;BME280;48597;49.030;1.822;2023-02-20T04:49:23;102007.25;;;20.33;38.31
62544;BME280;48597;49.030;1.822;2023-02-20T04:51:49;102006.81;;;20.35;38.23
62544;BME280;48597;49.030;1.822;2023-02-20T04:54:14;101996.59;;;20.34;38.18
62544;BME280;48597;49.030;1.822;2023-02-20T04:56:40;102001.53;;;20.33;38.23
62544;BME280;48597;49.030;1.822;2023-02-20T04:59:06;102011.34;;;20.32;38.15
62544;BME280;48597;49.030;1.822;2023-02-20T05:01:31;102013.41;;;20.32;38.17
62544;BME280;48597;49.030;1.822;2023-02-20T05:03:56;102014.63;;;20.31;38.20
62544;BME280;48597;49.030;1.822;2023-02-20T05:06:23;102009.72;;;20.31;38.27
62544;BME280;48597;49.030;1.822;2023-02-20T05:08:48;102008.47;;;20.32;38.15
62544;BME280;48597;49.030;1.822;2023-02-20T05:11:14;102002.38;;;20.30;38.06
62544;BME280;48597;49.030;1.822;2023-02-20T05:13:39;102005.63;;;20.36;38.27
62544;BME280;48597;49.030;1.822;2023-02-20T05:16:04;102004.75;;;20.39;38.01
62544;BME280;48597;49.030;1.822;2023-02-20T05:18:30;102000.69;;;20.37;38.02
62544;BME280;48597;49.030;1.822;2023-02-20T05:20:55;101993.28;;;20.39;37.97
62544;BME280;48597;49.030;1.822;2023-02-20T05:23:39;101992.50;;;20.35;38.03
62544;BME280;48597;49.030;1.822;2023-02-20T05:26:12;101985.97;;;20.34;37.96
62544;BME280;48597;49.030;1.822;2023-02-20T05:28:41;101988.44;;;20.32;37.99
62544;BME280;48597;49.030;1.822;2023-02-20T05:31:06;101990.91;;;20.30;38.11
62544;BME280;48597;49.030;1.822;2023-02-20T05:33:32;101990.94;;;20.27;37.97
62544;BME280;48597;49.030;1.822;2023-02-20T05:35:57;101985.22;;;20.27;38.07
62544;BME280;48597;49.030;1.822;2023-02-20T05:38:22;101988.50;;;20.25;37.96
62544;BME280;48597;49.030;1.822;2023-02-20T05:40:48;101985.28;;;20.23;37.99
62544;BME280;48597;49.030;1.822;2023-02-20T05:43:14;101981.59;;;20.23;38.23
62544;BME280;48597;49.030;1.822;2023-02-20T05:45:40;101984.09;;;20.21;38.23
62544;BME280;48597;49.030;1.822;2023-02-20T05:48:05;101984.91;;;20.21;38.13
62544;BME280;48597;49.030;1.822;2023-02-20T05:50:30;101984.91;;;20.21;38.09
62544;BME280;48597;49.030;1.822;2023-02-20T05:52:55;101976.31;;;20.21;38.09
62544;BME280;48597;49.030;1.822;2023-02-20T05:55:21;101973.88;;;20.20;38.24
62544;BME280;48597;49.030;1.822;2023-02-20T05:57:46;101978.78;;;20.19;38.01
62544;BME280;48597;49.030;1.822;2023-02-20T06:00:11;101984.91;;;20.21;37.90
62544;BME280;48597;49.030;1.822;2023-02-20T06:02:37;101988.56;;;20.22;38.04
62544;BME280;48597;49.030;1.822;2023-02-20T06:05:03;101986.09;;;20.24;38.02
62544;BME280;48597;49.030;1.822;2023-02-20T06:07:33;101985.63;;;20.25;38.13
62544;BME280;48597;49.030;1.822;2023-02-20T06:09:58;101988.47;;;20.29;37.98
62544;BME280;48597;49.030;1.822;2023-02-20T06:12:24;101992.16;;;20.29;37.95
62544;BME280;48597;49.030;1.822;2023-02-20T06:14:49;101989.72;;;20.28;37.95
62544;BME280;48597;49.030;1.822;2023-02-20T06:17:14;101990.13;;;20.26;38.01
62544;BME280;48597;49.030;1.822;2023-02-20T06:19:39;101979.13;;;20.25;38.00
62544;BME280;48597;49.030;1.822;2023-02-20T06:22:05;101983.59;;;20.26;37.98
62544;BME280;48597;49.030;1.822;2023-02-20T06:24:30;101982.41;;;20.23;37.94
62544;BME280;48597;49.030;1.822;2023-02-20T06:26:55;101977.53;;;20.20;38.04
62544;BME280;48597;49.030;1.822;2023-02-20T06:29:20;101991.84;;;20.20;37.89
62544;BME280;48597;49.030;1.822;2023-02-20T06:31:46;101987.34;;;20.23;38.08
62544;BME280;48597;49.030;1.822;2023-02-20T06:34:11;101988.56;;;20.22;37.95
62544;BME280;48597;49.030;1.822;2023-02-20T06:36:38;101992.66;;;20.21;38.11
62544;BME280;48597;49.030;1.822;2023-02-20T06:39:07;101981.25;;;20.17;38.12
62544;BME280;48597;49.030;1.822;2023-02-20T06:41:33;101985.28;;;20.23;38.19
62544;BME280;48597;49.030;1.822;2023-02-20T06:43:58;101987.34;;;20.23;38.02
62544;BME280;48597;49.030;1.822;2023-02-20T06:46:23;101996.31;;;20.25;38.12
62544;BME280;48597;49.030;1.822;2023-02-20T06:48:50;102000.75;;;20.29;38.23
62544;BME280;48597;49.030;1.822;2023-02-20T06:51:16;101997.47;;;20.27;38.13
62544;BME280;48597;49.030;1.822;2023-02-20T06:53:43;102004.81;;;20.32;37.89
62544;BME280;48597;49.030;1.822;2023-02-20T06:56:09;101998.25;;;20.31;38.02
62544;BME280;48597;49.030;1.822;2023-02-20T06:58:35;101995.81;;;20.30;37.95
62544;BME280;48597;49.030;1.822;2023-02-20T07:01:00;101999.06;;;20.32;37.88
62544;BME280;48597;49.030;1.822;2023-02-20T07:03:25;101998.66;;;20.37;37.82
62544;BME280;48597;49.030;1.822;2023-02-20T07:05:51;102008.88;;;20.38;37.89
62544;BME280;48597;49.030;1.822;2023-02-20T07:08:16;102006.00;;;20.38;37.91
62544;BME280;48597;49.030;1.822;2023-02-20T07:10:41;102003.06;;;20.42;37.78
62544;BME280;48597;49.030;1.822;2023-02-20T07:13:06;102004.81;;;20.36;37.77
62544;BME280;48597;49.030;1.822;2023-02-20T07:15:31;102004.81;;;20.36;37.92
62544;BME280;48597;49.030;1.822;2023-02-20T07:17:57;102006.78;;;20.39;37.89
62544;BME280;48597;49.030;1.822;2023-02-20T07:20:22;102012.97;;;20.37;37.89
62544;BME280;48597;49.030;1.822;2023-02-20T07:22:48;102013.72;;;20.41;37.73
62544;BME280;48597;49.030;1.822;2023-02-20T07:25:13;102014.59;;;20.38;37.99
62544;BME280;48597;49.030;1.822;2023-02-20T07:27:39;102025.59;;;20.40;37.77
62544;BME280;48597;49.030;1.822;2023-02-20T07:30:04;102023.19;;;20.38;37.75
62544;BME280;48597;49.030;1.822;2023-02-20T07:32:29;102022.72;;;20.40;37.86
62544;BME280;48597;49.030;1.822;2023-02-20T07:34:56;102029.69;;;20.39;37.91
62544;BME280;48597;49.030;1.822;2023-02-20T07:37:21;102034.19;;;20.40;37.79
62544;BME280;48597;49.030;1.822;2023-02-20T07:39:46;102035.69;;;20.51;38.06
62544;BME280;48597;49.030;1.822;2023-02-20T07:42:11;102032.09;;;20.44;37.84
62544;BME280;48597;49.030;1.822;2023-02-20T07:44:38;102037.44;;;20.42;37.85
62544;BME280;48597;49.030;1.822;2023-02-20T07:47:03;102042.34;;;20.41;37.78
62544;BME280;48597;49.030;1.822;2023-02-20T07:49:28;102042.78;;;20.40;37.91
62544;BME280;48597;49.030;1.822;2023-02-20T07:51:54;102043.16;;;20.42;37.82
62544;BME280;48597;49.030;1.822;2023-02-20T07:54:19;102041.94;;;20.43;38.05
62544;BME280;48597;49.030;1.822;2023-02-20T07:56:45;102039.47;;;20.45;37.77
62544;BME280;48597;49.030;1.822;2023-02-20T07:59:11;102041.94;;;20.43;37.81
62544;BME280;48597;49.030;1.822;2023-02-20T08:01:36;102047.25;;;20.44;37.64
62544;BME280;48597;49.030;1.822;2023-02-20T08:04:01;102045.59;;;20.47;37.92
62544;BME280;48597;49.030;1.822;2023-02-20T08:06:27;102056.22;;;20.46;37.76
62544;BME280;48597;49.030;1.822;2023-02-20T08:08:53;102060.31;;;20.45;37.84
62544;BME280;48597;49.030;1.822;2023-02-20T08:11:18;102059.94;;;20.43;37.82
62544;BME280;48597;49.030;1.822;2023-02-20T08:13:44;102061.97;;;20.43;37.63
62544;BME280;48597;49.030;1.822;2023-02-20T08:16:10;102066.50;;;20.40;37.78
62544;BME280;48597;49.030;1.822;2023-02-20T08:18:35;102063.63;;;20.40;37.87
62544;BME280;48597;49.030;1.822;2023-02-20T08:21:00;102057.56;;;20.38;37.82
62544;BME280;48597;49.030;1.822;2023-02-20T08:23:26;102055.94;;;20.37;37.90
62544;BME280;48597;49.030;1.822;2023-02-20T08:25:51;102054.69;;;20.34;37.86
62544;BME280;48597;49.030;1.822;2023-02-20T08:28:17;102048.16;;;20.34;37.93
62544;BME280;48597;49.030;1.822;2023-02-20T08:30:42;102051.00;;;20.34;37.88
62544;BME280;48597;49.030;1.822;2023-02-20T08:33:07;102055.94;;;20.33;37.92
62544;BME280;48597;49.030;1.822;2023-02-20T08:35:33;102057.97;;;20.33;37.92
62544;BME280;48597;49.030;1.822;2023-02-20T08:38:00;102063.72;;;20.29;37.92
62544;BME280;48597;49.030;1.822;2023-02-20T08:40:25;102055.97;;;20.26;37.89
62544;BME280;48597;49.030;1.822;2023-02-20T08:42:50;102055.97;;;20.26;38.01
62544;BME280;48597;49.030;1.822;2023-02-20T08:45:15;102058.84;;;20.26;37.74
62544;BME280;48597;49.030;1.822;2023-02-20T08:47:42;102062.19;;;20.21;37.96
62544;BME280;48597;49.030;1.822;2023-02-20T08:50:07;102061.41;;;20.17;37.78
62544;BME280;48597;49.030;1.822;2023-02-20T08:52:34;102056.09;;;20.16;37.84
62544;BME280;48597;49.030;1.822;2023-02-20T08:54:59;102049.97;;;20.14;38.09
62544;BME280;48597;49.030;1.822;2023-02-20T08:57:24;102059.81;;;20.13;38.09
62544;BME280;48597;49.030;1.822;2023-02-20T08:59:50;102063.94;;;20.12;38.18
62544;BME280;48597;49.030;1.822;2023-02-20T09:02:16;102067.22;;;20.10;38.06
62544;BME280;48597;49.030;1.822;2023-02-20T09:04:43;102057.81;;;20.10;37.99
62544;BME280;48597;49.030;1.822;2023-02-20T09:07:09;102058.63;;;20.10;38.06
62544;BME280;48597;49.030;1.822;2023-02-20T09:09:35;102058.66;;;20.07;37.99
62544;BME280;48597;49.030;1.822;2023-02-20T09:12:00;102060.69;;;20.06;38.21
62544;BME280;48597;49.030;1.822;2023-02-20T09:14:25;102062.34;;;20.07;38.24
62544;BME280;48597;49.030;1.822;2023-02-20T09:16:51;102063.16;;;20.08;38.23
62544;BME280;48597;49.030;1.822;2023-02-20T09:19:16;102060.28;;;20.08;38.06
62544;BME280;48597;49.030;1.822;2023-02-20T09:21:44;102057.84;;;20.06;38.15
62544;BME280;48597;49.030;1.822;2023-02-20T09:24:09;102053.34;;;20.05;38.17
62544;BME280;48597;49.030;1.822;2023-02-20T09:26:34;102059.50;;;20.04;38.21
62544;BME280;48597;49.030;1.822;2023-02-20T09:29:00;102059.91;;;20.02;38.24
62544;BME280;48597;49.030;1.822;2023-02-20T09:31:25;102070.97;;;20.00;38.08
62544;BME280;48597;49.030;1.822;2023-02-20T09:33:50;102067.28;;;19.99;38.38
62544;BME280;48597;49.030;1.822;2023-02-20T09:36:16;102064.44;;;19.99;38.16
62544;BME280;48597;49.030;1.822;2023-02-20T09:38:41;102064.44;;;19.99;38.26
62544;BME280;48597;49.030;1.822;2023-02-20T09:41:09;102071.41;;;19.98;38.37
62544;BME280;48597;49.030;1.822;2023-02-20T09:43:54;102067.75;;;19.98;38.16
62544;BME280;48597;49.030;1.822;2023-02-20T09:46:24;102066.13;;;19.97;38.32
62544;BME280;48597;49.030;1.822;2023-02-20T09:51:20;102069.41;;;19.95;38.16
62544;BME280;48597;49.030;1.822;2023-02-20T09:56:27;102063.28;;;19.93;38.25
62544;BME280;48597;49.030;1.822;2023-02-20T09:58:59;102066.13;;;19.93;38.43
62544;BME280;48597;49.030;1.822;2023-02-20T10:01:27;102061.66;;;19.92;38.27
62544;BME280;48597;49.030;1.822;2023-02-20T10:03:57;102057.16;;;19.91;38.19
62544;BME280;48597;49.030;1.822;2023-02-20T10:06:27;102058.38;;;19.90;38.26
62544;BME280;48597;49.030;1.822;2023-02-20T10:08:53;102052.69;;;19.87;38.12
62544;BME280;48597;49.030;1.822;2023-02-20T10:11:24;102052.69;;;19.87;38.26
62544;BME280;48597;49.030;1.822;2023-02-20T10:19:13;102060.50;;;19.83;38.43
62544;BME280;48597;49.030;1.822;2023-02-20T10:21:48;102064.19;;;19.83;38.35
62544;BME280;48597;49.030;1.822;2023-02-20T10:27:03;102057.22;;;19.84;38.37
62544;BME280;48597;49.030;1.822;2023-02-20T10:29:35;102064.59;;;19.85;38.40
62544;BME280;48597;49.030;1.822;2023-02-20T10:32:08;102059.22;;;19.87;38.51
62544;BME280;48597;49.030;1.822;2023-02-20T10:37:01;102056.75;;;19.89;38.38
62544;BME280;48597;49.030;1.822;2023-02-20T10:39:28;102058.78;;;19.92;38.33
62544;BME280;48597;49.030;1.822;2023-02-20T10:44:28;102063.66;;;19.95;38.46
62544;BME280;48597;49.030;1.822;2023-02-20T10:46:59;102057.56;;;19.93;38.18
62544;BME280;48597;49.030;1.822;2023-02-20T10:51:59;102053.78;;;20.00;38.39
62544;BME280;48597;49.030;1.822;2023-02-20T10:54:33;102059.50;;;20.04;38.21
62544;BME280;48597;49.030;1.822;2023-02-20T10:57:10;102063.16;;;20.08;38.01
62544;BME280;48597;49.030;1.822;2023-02-20T10:59:46;102068.84;;;20.11;38.13
62544;BME280;48597;49.030;1.822;2023-02-20T11:02:20;102066.41;;;20.10;38.17
62544;BME280;48597;49.030;1.822;2023-02-20T11:04:49;102062.31;;;20.11;38.25
62544;BME280;48597;49.030;1.822;2023-02-20T11:07:16;102056.56;;;20.11;38.01
62544;BME280;48597;49.030;1.822;2023-02-20T11:09:46;102063.97;;;20.08;38.01
62544;BME280;48597;49.030;1.822;2023-02-20T11:12:18;102059.81;;;20.13;38.12
62544;BME280;48597;49.030;1.822;2023-02-20T11:14:45;102047.19;;;20.10;38.17
62544;BME280;48597;49.030;1.822;2023-02-20T11:17:17;102043.91;;;20.12;38.04
62544;BME280;48597;49.030;1.822;2023-02-20T11:19:44;102046.75;;;20.12;38.04
62544;BME280;48597;49.030;1.822;2023-02-20T11:22:10;102038.59;;;20.10;38.02
62544;BME280;48597;49.030;1.822;2023-02-20T11:24:39;102037.78;;;20.10;37.93
62544;BME280;48597;49.030;1.822;2023-02-20T11:29:33;102031.63;;;20.11;38.18
62544;BME280;48597;49.030;1.822;2023-02-20T11:34:43;102029.19;;;20.10;38.26
62544;BME280;48597;49.030;1.822;2023-02-20T11:37:09;102025.09;;;20.11;38.04
62544;BME280;48597;49.030;1.822;2023-02-20T11:39:36;102018.13;;;20.12;37.98
62544;BME280;48597;49.030;1.822;2023-02-20T11:42:13;102011.59;;;20.11;37.92
62544;BME280;48597;49.030;1.822;2023-02-20T11:44:40;102018.13;;;20.12;37.81
62544;BME280;48597;49.030;1.822;2023-02-20T11:47:20;102018.13;;;20.12;37.84
62544;BME280;48597;49.030;1.822;2023-02-20T11:49:45;102006.31;;;20.06;38.35
62544;BME280;48597;49.030;1.822;2023-02-20T11:52:16;102016.97;;;20.06;38.85
62544;BME280;48597;49.030;1.822;2023-02-20T11:54:41;102010.41;;;20.05;39.13
62544;BME280;48597;49.030;1.822;2023-02-20T11:57:17;102005.94;;;20.04;39.36
62544;BME280;48597;49.030;1.822;2023-02-20T11:59:45;101991.22;;;20.02;39.42
62544;BME280;48597;49.030;1.822;2023-02-20T12:04:45;101993.69;;;20.00;39.58
62544;BME280;48597;49.030;1.822;2023-02-20T12:07:28;101992.09;;;19.99;39.14
62544;BME280;48597;49.030;1.822;2023-02-20T12:09:58;101973.72;;;19.96;39.32
62544;BME280;48597;49.030;1.822;2023-02-20T12:12:26;101975.78;;;19.96;39.53
62544;BME280;48597;49.030;1.822;2023-02-20T12:14:53;101969.22;;;19.95;39.32
62544;BME280;48597;49.030;1.822;2023-02-20T12:17:21;101961.88;;;19.94;39.28
62544;BME280;48597;49.030;1.822;2023-02-20T12:19:58;101953.31;;;19.94;39.22
62544;BME280;48597;49.030;1.822;2023-02-20T12:32:48;101942.28;;;19.93;39.93
62544;BME280;48597;49.030;1.822;2023-02-20T12:35:35;101938.59;;;19.92;39.98
62544;BME280;48597;49.030;1.822;2023-02-20T12:38:04;101930.81;;;19.93;40.06
62544;BME280;48597;49.030;1.822;2023-02-20T12:46:10;101918.56;;;19.92;40.31
62544;BME280;48597;49.030;1.822;2023-02-20T12:51:27;101917.75;;;19.92;40.10
62544;BME280;48597;49.030;1.822;2023-02-20T12:54:06;101917.75;;;19.92;40.31
62544;BME280;48597;49.030;1.822;2023-02-20T13:01:28;101897.72;;;19.92;40.74
62544;BME280;48597;49.030;1.822;2023-02-20T13:09:10;101877.56;;;20.03;40.41
62544;BME280;48597;49.030;1.822;2023-02-20T13:11:41;101874.78;;;20.60;39.34
62544;BME280;48597;49.030;1.822;2023-02-20T13:21:53;101851.59;;;21.28;37.35
62544;BME280;48597;49.030;1.822;2023-02-20T13:26:54;101857.09;;;20.38;38.84
62544;BME280;48597;49.030;1.822;2023-02-20T13:31:57;101847.19;;;20.12;39.68
62544;BME280;48597;49.030;1.822;2023-02-20T13:34:29;101843.19;;;20.06;39.77
62544;BME280;48597;49.030;1.822;2023-02-20T13:36:55;101835.84;;;20.05;39.90
62544;BME280;48597;49.030;1.822;2023-02-20T13:39:25;101831.78;;;20.03;39.85
62544;BME280;48597;49.030;1.822;2023-02-20T13:41:58;101828.53;;;20.01;39.86
62544;BME280;48597;49.030;1.822;2023-02-20T13:44:32;101821.97;;;20.00;40.10
62544;BME280;48597;49.030;1.822;2023-02-20T13:54:58;101810.53;;;20.00;40.12
62544;BME280;48597;49.030;1.822;2023-02-20T13:57:25;101805.63;;;20.01;40.09
62544;BME280;48597;49.030;1.822;2023-02-20T13:59:57;101808.13;;;19.98;40.25
62544;BME280;48597;49.030;1.822;2023-02-20T14:02:25;101804.00;;;19.99;40.32
62544;BME280;48597;49.030;1.822;2023-02-20T14:04:57;101799.97;;;19.97;40.36
62544;BME280;48597;49.030;1.822;2023-02-20T14:07:31;101801.22;;;19.96;40.42
62544;BME280;48597;49.030;1.822;2023-02-20T14:10:01;101795.06;;;19.97;40.58
62544;BME280;48597;49.030;1.822;2023-02-20T14:12:27;101798.75;;;19.98;40.69
62544;BME280;48597;49.030;1.822;2023-02-20T14:14:52;101790.16;;;19.98;40.66
62544;BME280;48597;49.030;1.822;2023-02-20T14:17:19;101789.34;;;19.97;40.73
62544;BME280;48597;49.030;1.822;2023-02-20T14:19:48;101782.81;;;19.97;40.90
62544;BME280;48597;49.030;1.822;2023-02-20T14:24:45;101776.69;;;19.95;40.97
62544;BME280;48597;49.030;1.822;2023-02-20T14:27:25;101766.47;;;19.94;41.15
62544;BME280;48597;49.030;1.822;2023-02-20T14:30:08;101773.44;;;19.93;41.10
62544;BME280;48597;49.030;1.822;2023-02-20T14:32:36;101760.38;;;19.92;41.09
62544;BME280;48597;49.030;1.822;2023-02-20T14:35:05;101762.44;;;19.91;41.11
62544;BME280;48597;49.030;1.822;2023-02-20T14:40:09;101752.22;;;19.90;41.15